Aviation Digital Data Service (ADDS)

Output produced by METARs form (1240 UTC 22 March 2019)
found at http://www.aviationweather.gov/metar/data/
 
METAR text: HAAB 221200Z 11010KT 9999 FEW025 27/05 Q1023
Conditions at: HAAB (ADDIS ABABA/BOLE, ET) observed 1200 UTC 22 March 2019
Temperature: 27.0°C (81°F)
Dewpoint: 5.0°C (41°F) [RH = 24%]
Pressure (altimeter): 30.21 inches Hg (1023.0 mb)
Winds: from the ESE (110 degrees) at 12 MPH (10 knots; 5.1 m/s)
Visibility: 6 or more miles (10+ km)
Ceiling: at least 12,000 feet AGL
Clouds: few clouds at 2500 feet AGL
Weather: no significant weather observed at this time

METAR text: HAAB 220900Z 09011KT 9999 SCT025 24/07 Q1027
Conditions at: HAAB (ADDIS ABABA/BOLE, ET) observed 0900 UTC 22 March 2019
Temperature: 24.0°C (75°F)
Dewpoint: 7.0°C (45°F) [RH = 34%]
Pressure (altimeter): 30.32 inches Hg (1027.0 mb)
Winds: from the E (90 degrees) at 13 MPH (11 knots; 5.7 m/s)
Visibility: 6 or more miles (10+ km)
Ceiling: at least 12,000 feet AGL
Clouds: scattered clouds at 2500 feet AGL
Weather: no significant weather observed at this time

METAR text: HAAB 220800Z 10012KT 9999 SCT025 24/06 Q1028
Conditions at: HAAB (ADDIS ABABA/BOLE, ET) observed 0800 UTC 22 March 2019
Temperature: 24.0°C (75°F)
Dewpoint: 6.0°C (43°F) [RH = 31%]
Pressure (altimeter): 30.35 inches Hg (1028.0 mb)
Winds: from the E (100 degrees) at 14 MPH (12 knots; 6.2 m/s)
Visibility: 6 or more miles (10+ km)
Ceiling: at least 12,000 feet AGL
Clouds: scattered clouds at 2500 feet AGL
Weather: no significant weather observed at this time

METAR text: HAAB 220400Z 26003KT 9999 FEW025 14/06 Q1026
Conditions at: HAAB (ADDIS ABABA/BOLE, ET) observed 0400 UTC 22 March 2019
Temperature: 14.0°C (57°F)
Dewpoint: 6.0°C (43°F) [RH = 58%]
Pressure (altimeter): 30.30 inches Hg (1026.0 mb)
Winds: from the W (260 degrees) at 3 MPH (3 knots; 1.5 m/s)
Visibility: 6 or more miles (10+ km)
Ceiling: at least 12,000 feet AGL
Clouds: few clouds at 2500 feet AGL
Weather: no significant weather observed at this time

METAR text: HAAB 220000Z 32006KT 9999 SCT025 18/06 Q1024
Conditions at: HAAB (ADDIS ABABA/BOLE, ET) observed 0000 UTC 22 March 2019
Temperature: 18.0°C (64°F)
Dewpoint: 6.0°C (43°F) [RH = 45%]
Pressure (altimeter): 30.24 inches Hg (1024.0 mb)
Winds: from the NW (320 degrees) at 7 MPH (6 knots; 3.1 m/s)
Visibility: 6 or more miles (10+ km)
Ceiling: at least 12,000 feet AGL
Clouds: scattered clouds at 2500 feet AGL
Weather: no significant weather observed at this time

METAR text: HAAB 211500Z 08012KT 9999 FEW024 CB SCT025 25/03 Q1023
Conditions at: HAAB (ADDIS ABABA/BOLE, ET) observed 1500 UTC 21 March 2019
Temperature: 25.0°C (77°F)
Dewpoint: 3.0°C (37°F) [RH = 24%]
Pressure (altimeter): 30.21 inches Hg (1023.0 mb)
Winds: from the E (80 degrees) at 14 MPH (12 knots; 6.2 m/s)
Visibility: 6 or more miles (10+ km)
Ceiling: at least 12,000 feet AGL
Clouds: few clouds at 2400 feet AGL
scattered clouds at 2500 feet AGL
Weather: no significant weather observed at this time

Forecast for: HAAB (ADDIS ABABA/BOLE, ET)
Text: TAF HAAB 220930Z 2212/2318 09010KT 9999 SCT030 FEW100
Forecast period: 1200 UTC 22 March 2019 to 1800 UTC 23 March 2019
Forecast type: FROM: standard forecast or significant change
Winds: from the E (90 degrees) at 12 MPH (10 knots; 5.1 m/s)
Visibility: 6 or more miles 10+ km)
Ceiling: at least 12,000 feet AGL
Clouds: scattered clouds at 3000 feet AGL
few clouds at 10000 feet AGL
Weather: no significant weather forecast for this period
Text: BECMG 2212/2215 12010KT SCT029
Forecast period: 1200 UTC 22 March 2019 to 1800 UTC 23 March 2019
Forecast type: BECOMING: Conditions expected to become as follows by 1500 UTC 22 March 2019
Winds: from the ESE (120 degrees) at 12 MPH (10 knots; 5.1 m/s)
Visibility: 6 or more miles 10+ km)
Ceiling: at least 12,000 feet AGL
Clouds: scattered clouds at 2900 feet AGL
Weather: no significant weather forecast for this period